sensor_id;sensor_type;location;lat;lon;timestamp;P1;durP1;ratioP1;P2;durP2;ratioP2
15381;SDS011;7789;51.364;12.358;2023-02-15T00:02:40;38.83;;;23.13;;
15381;SDS011;7789;51.364;12.358;2023-02-15T00:07:44;38.77;;;23.10;;
15381;SDS011;7789;51.364;12.358;2023-02-15T00:12:47;39.33;;;24.63;;
15381;SDS011;7789;51.364;12.358;2023-02-15T00:17:50;36.20;;;23.23;;
15381;SDS011;7789;51.364;12.358;2023-02-15T00:22:55;37.13;;;24.30;;
15381;SDS011;7789;51.364;12.358;2023-02-15T00:27:59;39.70;;;24.27;;
15381;SDS011;7789;51.364;12.358;2023-02-15T00:33:02;38.63;;;23.33;;
15381;SDS011;7789;51.364;12.358;2023-02-15T00:38:07;40.97;;;23.13;;
15381;SDS011;7789;51.364;12.358;2023-02-15T00:43:10;36.30;;;23.97;;
15381;SDS011;7789;51.364;12.358;2023-02-15T00:48:13;38.63;;;23.80;;
15381;SDS011;7789;51.364;12.358;2023-02-15T00:53:18;37.37;;;23.80;;
15381;SDS011;7789;51.364;12.358;2023-02-15T00:58:22;38.17;;;23.67;;
15381;SDS011;7789;51.364;12.358;2023-02-15T01:03:25;36.53;;;23.53;;
15381;SDS011;7789;51.364;12.358;2023-02-15T01:08:30;34.67;;;21.23;;
15381;SDS011;7789;51.364;12.358;2023-02-15T01:13:34;34.07;;;21.17;;
15381;SDS011;7789;51.364;12.358;2023-02-15T01:18:38;33.50;;;21.93;;
15381;SDS011;7789;51.364;12.358;2023-02-15T01:23:43;35.27;;;21.83;;
15381;SDS011;7789;51.364;12.358;2023-02-15T01:28:47;33.97;;;21.10;;
15381;SDS011;7789;51.364;12.358;2023-02-15T01:33:50;34.30;;;21.70;;
15381;SDS011;7789;51.364;12.358;2023-02-15T01:38:55;33.53;;;19.73;;
15381;SDS011;7789;51.364;12.358;2023-02-15T01:43:59;29.67;;;18.33;;
15381;SDS011;7789;51.364;12.358;2023-02-15T01:49:05;29.40;;;18.03;;
15381;SDS011;7789;51.364;12.358;2023-02-15T01:54:15;27.97;;;19.13;;
15381;SDS011;7789;51.364;12.358;2023-02-15T01:59:26;28.50;;;17.63;;
15381;SDS011;7789;51.364;12.358;2023-02-15T02:04:31;27.13;;;17.50;;
15381;SDS011;7789;51.364;12.358;2023-02-15T02:09:43;27.20;;;17.07;;
15381;SDS011;7789;51.364;12.358;2023-02-15T02:14:48;27.37;;;17.27;;
15381;SDS011;7789;51.364;12.358;2023-02-15T02:25:35;32.23;;;18.93;;
15381;SDS011;7789;51.364;12.358;2023-02-15T02:31:22;28.10;;;16.70;;
15381;SDS011;7789;51.364;12.358;2023-02-15T02:36:45;26.33;;;17.27;;
15381;SDS011;7789;51.364;12.358;2023-02-15T02:41:56;25.63;;;17.00;;
15381;SDS011;7789;51.364;12.358;2023-02-15T02:47:05;28.50;;;17.17;;
15381;SDS011;7789;51.364;12.358;2023-02-15T02:57:41;25.10;;;16.87;;
15381;SDS011;7789;51.364;12.358;2023-02-15T03:02:50;26.03;;;16.13;;
15381;SDS011;7789;51.364;12.358;2023-02-15T03:08:01;23.90;;;15.60;;
15381;SDS011;7789;51.364;12.358;2023-02-15T03:13:07;23.37;;;15.87;;
15381;SDS011;7789;51.364;12.358;2023-02-15T03:18:11;24.50;;;15.90;;
15381;SDS011;7789;51.364;12.358;2023-02-15T03:23:17;23.20;;;15.33;;
15381;SDS011;7789;51.364;12.358;2023-02-15T03:28:25;24.57;;;15.97;;
15381;SDS011;7789;51.364;12.358;2023-02-15T03:33:33;22.63;;;14.53;;
15381;SDS011;7789;51.364;12.358;2023-02-15T03:38:40;20.00;;;14.13;;
15381;SDS011;7789;51.364;12.358;2023-02-15T03:43:51;21.00;;;14.67;;
15381;SDS011;7789;51.364;12.358;2023-02-15T03:48:57;19.67;;;13.27;;
15381;SDS011;7789;51.364;12.358;2023-02-15T03:54:08;21.67;;;14.33;;
15381;SDS011;7789;51.364;12.358;2023-02-15T03:59:13;21.30;;;13.73;;
15381;SDS011;7789;51.364;12.358;2023-02-15T04:04:35;20.53;;;14.47;;
15381;SDS011;7789;51.364;12.358;2023-02-15T04:09:40;22.10;;;13.83;;
15381;SDS011;7789;51.364;12.358;2023-02-15T04:15:02;20.30;;;14.27;;
15381;SDS011;7789;51.364;12.358;2023-02-15T04:20:23;20.20;;;13.67;;
15381;SDS011;7789;51.364;12.358;2023-02-15T04:25:45;21.50;;;14.20;;
15381;SDS011;7789;51.364;12.358;2023-02-15T04:30:48;19.57;;;13.50;;
15381;SDS011;7789;51.364;12.358;2023-02-15T04:35:51;19.57;;;14.00;;
15381;SDS011;7789;51.364;12.358;2023-02-15T04:40:56;22.07;;;14.07;;
15381;SDS011;7789;51.364;12.358;2023-02-15T04:45:59;20.10;;;13.37;;
15381;SDS011;7789;51.364;12.358;2023-02-15T04:51:04;20.87;;;13.27;;
15381;SDS011;7789;51.364;12.358;2023-02-15T04:56:10;19.47;;;13.30;;
15381;SDS011;7789;51.364;12.358;2023-02-15T05:01:13;21.60;;;13.97;;
15381;SDS011;7789;51.364;12.358;2023-02-15T05:06:17;19.27;;;13.23;;
15381;SDS011;7789;51.364;12.358;2023-02-15T05:11:21;18.97;;;13.13;;
15381;SDS011;7789;51.364;12.358;2023-02-15T05:16:24;18.27;;;13.17;;
15381;SDS011;7789;51.364;12.358;2023-02-15T05:21:29;20.40;;;12.43;;
15381;SDS011;7789;51.364;12.358;2023-02-15T05:26:34;17.80;;;12.20;;
15381;SDS011;7789;51.364;12.358;2023-02-15T05:31:54;19.43;;;13.10;;
15381;SDS011;7789;51.364;12.358;2023-02-15T05:36:57;17.30;;;11.80;;
15381;SDS011;7789;51.364;12.358;2023-02-15T05:42:02;17.17;;;11.83;;
15381;SDS011;7789;51.364;12.358;2023-02-15T05:47:06;16.87;;;11.47;;
15381;SDS011;7789;51.364;12.358;2023-02-15T05:52:09;16.20;;;12.10;;
15381;SDS011;7789;51.364;12.358;2023-02-15T05:57:15;19.33;;;11.90;;
15381;SDS011;7789;51.364;12.358;2023-02-15T06:02:18;19.07;;;12.13;;
15381;SDS011;7789;51.364;12.358;2023-02-15T06:07:21;16.50;;;11.90;;
15381;SDS011;7789;51.364;12.358;2023-02-15T06:12:26;17.53;;;11.60;;
15381;SDS011;7789;51.364;12.358;2023-02-15T06:17:29;19.23;;;12.67;;
15381;SDS011;7789;51.364;12.358;2023-02-15T06:22:32;20.63;;;12.30;;
15381;SDS011;7789;51.364;12.358;2023-02-15T06:27:37;16.73;;;11.83;;
15381;SDS011;7789;51.364;12.358;2023-02-15T06:32:43;18.50;;;11.27;;
15381;SDS011;7789;51.364;12.358;2023-02-15T06:37:47;17.27;;;12.47;;
15381;SDS011;7789;51.364;12.358;2023-02-15T06:42:52;16.37;;;11.50;;
15381;SDS011;7789;51.364;12.358;2023-02-15T06:53:27;15.87;;;11.60;;
15381;SDS011;7789;51.364;12.358;2023-02-15T06:58:32;16.30;;;11.40;;
15381;SDS011;7789;51.364;12.358;2023-02-15T07:03:37;18.07;;;12.27;;
15381;SDS011;7789;51.364;12.358;2023-02-15T07:08:42;13.97;;;10.67;;
15381;SDS011;7789;51.364;12.358;2023-02-15T07:13:47;16.83;;;11.30;;
15381;SDS011;7789;51.364;12.358;2023-02-15T07:18:50;14.83;;;10.17;;
15381;SDS011;7789;51.364;12.358;2023-02-15T07:23:55;14.50;;;10.67;;
15381;SDS011;7789;51.364;12.358;2023-02-15T07:29:01;13.23;;;9.80;;
15381;SDS011;7789;51.364;12.358;2023-02-15T07:34:07;13.63;;;9.77;;
15381;SDS011;7789;51.364;12.358;2023-02-15T07:39:10;11.93;;;8.90;;
15381;SDS011;7789;51.364;12.358;2023-02-15T07:44:15;14.40;;;9.50;;
15381;SDS011;7789;51.364;12.358;2023-02-15T07:49:19;12.53;;;8.73;;
15381;SDS011;7789;51.364;12.358;2023-02-15T07:54:23;9.47;;;7.50;;
15381;SDS011;7789;51.364;12.358;2023-02-15T07:59:28;10.07;;;7.10;;
15381;SDS011;7789;51.364;12.358;2023-02-15T08:04:32;8.90;;;6.83;;
15381;SDS011;7789;51.364;12.358;2023-02-15T08:09:36;9.23;;;6.93;;
15381;SDS011;7789;51.364;12.358;2023-02-15T08:14:52;8.07;;;6.60;;
15381;SDS011;7789;51.364;12.358;2023-02-15T08:19:59;8.07;;;6.30;;
15381;SDS011;7789;51.364;12.358;2023-02-15T08:25:02;8.17;;;6.20;;
15381;SDS011;7789;51.364;12.358;2023-02-15T08:30:09;11.47;;;6.07;;
15381;SDS011;7789;51.364;12.358;2023-02-15T08:35:16;9.87;;;5.47;;
15381;SDS011;7789;51.364;12.358;2023-02-15T08:40:19;8.93;;;6.73;;
15381;SDS011;7789;51.364;12.358;2023-02-15T08:45:24;7.37;;;6.07;;
15381;SDS011;7789;51.364;12.358;2023-02-15T08:50:27;7.10;;;5.87;;
15381;SDS011;7789;51.364;12.358;2023-02-15T08:55:31;6.63;;;5.90;;
15381;SDS011;7789;51.364;12.358;2023-02-15T09:00:35;8.53;;;5.60;;
15381;SDS011;7789;51.364;12.358;2023-02-15T09:05:39;8.77;;;6.17;;
15381;SDS011;7789;51.364;12.358;2023-02-15T09:10:42;6.63;;;5.60;;
15381;SDS011;7789;51.364;12.358;2023-02-15T09:15:46;7.63;;;5.43;;
15381;SDS011;7789;51.364;12.358;2023-02-15T09:20:50;7.70;;;5.40;;
15381;SDS011;7789;51.364;12.358;2023-02-15T09:25:53;6.50;;;4.97;;
15381;SDS011;7789;51.364;12.358;2023-02-15T09:30:57;5.60;;;5.00;;
15381;SDS011;7789;51.364;12.358;2023-02-15T09:36:13;7.63;;;4.77;;
15381;SDS011;7789;51.364;12.358;2023-02-15T09:41:23;6.47;;;4.27;;
15381;SDS011;7789;51.364;12.358;2023-02-15T09:46:51;6.33;;;4.57;;
15381;SDS011;7789;51.364;12.358;2023-02-15T09:52:17;5.97;;;4.60;;
15381;SDS011;7789;51.364;12.358;2023-02-15T09:57:32;4.87;;;3.97;;
15381;SDS011;7789;51.364;12.358;2023-02-15T10:02:55;5.27;;;4.37;;
15381;SDS011;7789;51.364;12.358;2023-02-15T10:08:25;5.37;;;4.47;;
15381;SDS011;7789;51.364;12.358;2023-02-15T10:13:44;6.57;;;4.10;;
15381;SDS011;7789;51.364;12.358;2023-02-15T10:18:55;5.93;;;4.20;;
15381;SDS011;7789;51.364;12.358;2023-02-15T10:24:14;6.17;;;5.03;;
15381;SDS011;7789;51.364;12.358;2023-02-15T10:29:34;5.10;;;4.00;;
15381;SDS011;7789;51.364;12.358;2023-02-15T10:34:42;5.50;;;4.37;;
15381;SDS011;7789;51.364;12.358;2023-02-15T10:39:54;5.53;;;4.63;;
15381;SDS011;7789;51.364;12.358;2023-02-15T10:45:07;5.30;;;4.60;;
15381;SDS011;7789;51.364;12.358;2023-02-15T10:50:26;7.00;;;4.50;;
15381;SDS011;7789;51.364;12.358;2023-02-15T10:55:39;8.27;;;4.43;;
15381;SDS011;7789;51.364;12.358;2023-02-15T11:00:50;4.80;;;4.17;;
15381;SDS011;7789;51.364;12.358;2023-02-15T11:06:05;9.50;;;4.77;;
15381;SDS011;7789;51.364;12.358;2023-02-15T11:11:12;7.93;;;5.57;;
15381;SDS011;7789;51.364;12.358;2023-02-15T11:16:22;8.63;;;4.30;;
15381;SDS011;7789;51.364;12.358;2023-02-15T11:21:33;7.30;;;4.33;;
15381;SDS011;7789;51.364;12.358;2023-02-15T11:26:41;8.10;;;4.57;;
15381;SDS011;7789;51.364;12.358;2023-02-15T11:31:47;5.53;;;4.20;;
15381;SDS011;7789;51.364;12.358;2023-02-15T11:36:58;5.47;;;4.40;;
15381;SDS011;7789;51.364;12.358;2023-02-15T11:42:06;9.77;;;4.70;;
15381;SDS011;7789;51.364;12.358;2023-02-15T11:47:15;8.70;;;5.00;;
15381;SDS011;7789;51.364;12.358;2023-02-15T11:52:20;7.00;;;5.10;;
15381;SDS011;7789;51.364;12.358;2023-02-15T11:57:25;6.37;;;4.83;;
15381;SDS011;7789;51.364;12.358;2023-02-15T12:02:35;5.53;;;4.60;;
15381;SDS011;7789;51.364;12.358;2023-02-15T12:07:43;5.90;;;4.40;;
15381;SDS011;7789;51.364;12.358;2023-02-15T12:12:49;4.87;;;4.27;;
15381;SDS011;7789;51.364;12.358;2023-02-15T12:18:21;5.00;;;4.50;;
15381;SDS011;7789;51.364;12.358;2023-02-15T12:23:44;5.17;;;4.63;;
15381;SDS011;7789;51.364;12.358;2023-02-15T12:28:53;4.60;;;4.00;;
15381;SDS011;7789;51.364;12.358;2023-02-15T12:34:03;4.50;;;4.10;;
15381;SDS011;7789;51.364;12.358;2023-02-15T12:39:24;5.15;;;4.65;;
15381;SDS011;7789;51.364;12.358;2023-02-15T12:44:29;5.43;;;4.75;;
15381;SDS011;7789;51.364;12.358;2023-02-15T12:49:34;4.65;;;4.22;;
15381;SDS011;7789;51.364;12.358;2023-02-15T12:54:40;5.13;;;3.43;;
15381;SDS011;7789;51.364;12.358;2023-02-15T12:59:55;4.75;;;3.17;;
15381;SDS011;7789;51.364;12.358;2023-02-15T13:05:10;3.65;;;2.90;;
15381;SDS011;7789;51.364;12.358;2023-02-15T13:10:52;3.75;;;3.00;;
15381;SDS011;7789;51.364;12.358;2023-02-15T13:15:58;3.42;;;2.90;;
15381;SDS011;7789;51.364;12.358;2023-02-15T13:21:06;4.25;;;3.20;;
15381;SDS011;7789;51.364;12.358;2023-02-15T13:26:16;3.17;;;2.88;;
15381;SDS011;7789;51.364;12.358;2023-02-15T13:31:24;3.55;;;2.40;;
15381;SDS011;7789;51.364;12.358;2023-02-15T13:36:34;4.95;;;2.63;;
15381;SDS011;7789;51.364;12.358;2023-02-15T13:41:48;3.60;;;2.83;;
15381;SDS011;7789;51.364;12.358;2023-02-15T13:47:07;3.50;;;2.65;;
15381;SDS011;7789;51.364;12.358;2023-02-15T13:52:21;6.75;;;3.45;;
15381;SDS011;7789;51.364;12.358;2023-02-15T13:57:43;2.95;;;2.70;;
15381;SDS011;7789;51.364;12.358;2023-02-15T14:03:19;5.07;;;2.80;;
15381;SDS011;7789;51.364;12.358;2023-02-15T14:08:54;4.65;;;2.53;;
15381;SDS011;7789;51.364;12.358;2023-02-15T14:14:14;4.10;;;2.70;;
15381;SDS011;7789;51.364;12.358;2023-02-15T14:19:29;5.32;;;3.22;;
15381;SDS011;7789;51.364;12.358;2023-02-15T14:24:38;3.60;;;3.08;;
15381;SDS011;7789;51.364;12.358;2023-02-15T14:29:49;5.03;;;2.67;;
15381;SDS011;7789;51.364;12.358;2023-02-15T14:34:57;2.95;;;2.60;;
15381;SDS011;7789;51.364;12.358;2023-02-15T14:40:03;4.43;;;3.05;;
15381;SDS011;7789;51.364;12.358;2023-02-15T14:45:34;3.30;;;2.42;;
15381;SDS011;7789;51.364;12.358;2023-02-15T14:50:46;3.07;;;2.47;;
15381;SDS011;7789;51.364;12.358;2023-02-15T14:56:04;2.35;;;2.10;;
15381;SDS011;7789;51.364;12.358;2023-02-15T15:01:11;2.33;;;2.13;;
15381;SDS011;7789;51.364;12.358;2023-02-15T15:06:23;3.93;;;2.10;;
15381;SDS011;7789;51.364;12.358;2023-02-15T15:11:37;4.00;;;2.13;;
15381;SDS011;7789;51.364;12.358;2023-02-15T15:16:50;3.08;;;2.47;;
15381;SDS011;7789;51.364;12.358;2023-02-15T15:21:54;6.05;;;2.35;;
15381;SDS011;7789;51.364;12.358;2023-02-15T15:32:52;4.03;;;2.50;;
15381;SDS011;7789;51.364;12.358;2023-02-15T15:38:13;2.67;;;2.15;;
15381;SDS011;7789;51.364;12.358;2023-02-15T15:49:14;2.97;;;2.50;;
15381;SDS011;7789;51.364;12.358;2023-02-15T15:54:20;3.77;;;3.00;;
15381;SDS011;7789;51.364;12.358;2023-02-15T15:59:26;4.27;;;3.23;;
15381;SDS011;7789;51.364;12.358;2023-02-15T16:04:34;4.67;;;3.10;;
15381;SDS011;7789;51.364;12.358;2023-02-15T16:09:37;2.93;;;2.67;;
15381;SDS011;7789;51.364;12.358;2023-02-15T16:14:41;5.63;;;3.10;;
15381;SDS011;7789;51.364;12.358;2023-02-15T16:19:50;5.17;;;3.47;;
15381;SDS011;7789;51.364;12.358;2023-02-15T16:25:13;5.27;;;3.30;;
15381;SDS011;7789;51.364;12.358;2023-02-15T16:30:29;7.10;;;3.33;;
15381;SDS011;7789;51.364;12.358;2023-02-15T16:35:36;5.87;;;3.40;;
15381;SDS011;7789;51.364;12.358;2023-02-15T16:40:41;5.20;;;2.97;;
15381;SDS011;7789;51.364;12.358;2023-02-15T16:45:56;8.10;;;4.77;;
15381;SDS011;7789;51.364;12.358;2023-02-15T16:51:07;6.83;;;4.50;;
15381;SDS011;7789;51.364;12.358;2023-02-15T16:56:12;7.93;;;4.37;;
15381;SDS011;7789;51.364;12.358;2023-02-15T17:01:17;6.10;;;3.90;;
15381;SDS011;7789;51.364;12.358;2023-02-15T17:06:26;6.43;;;4.10;;
15381;SDS011;7789;51.364;12.358;2023-02-15T17:11:34;7.27;;;3.87;;
15381;SDS011;7789;51.364;12.358;2023-02-15T17:16:40;7.40;;;4.37;;
15381;SDS011;7789;51.364;12.358;2023-02-15T17:21:53;5.77;;;3.97;;
15381;SDS011;7789;51.364;12.358;2023-02-15T17:26:59;5.67;;;3.83;;
15381;SDS011;7789;51.364;12.358;2023-02-15T17:32:05;7.27;;;4.57;;
15381;SDS011;7789;51.364;12.358;2023-02-15T17:37:26;8.50;;;4.60;;
15381;SDS011;7789;51.364;12.358;2023-02-15T17:42:31;5.07;;;4.53;;
15381;SDS011;7789;51.364;12.358;2023-02-15T17:47:34;6.07;;;4.93;;
15381;SDS011;7789;51.364;12.358;2023-02-15T17:52:39;6.53;;;4.90;;
15381;SDS011;7789;51.364;12.358;2023-02-15T17:57:43;5.27;;;4.57;;
15381;SDS011;7789;51.364;12.358;2023-02-15T18:02:46;5.30;;;4.80;;
15381;SDS011;7789;51.364;12.358;2023-02-15T18:08:10;7.37;;;5.47;;
15381;SDS011;7789;51.364;12.358;2023-02-15T18:13:32;7.63;;;5.17;;
15381;SDS011;7789;51.364;12.358;2023-02-15T18:18:35;6.23;;;5.30;;
15381;SDS011;7789;51.364;12.358;2023-02-15T18:23:40;6.80;;;5.67;;
15381;SDS011;7789;51.364;12.358;2023-02-15T18:28:44;6.67;;;5.73;;
15381;SDS011;7789;51.364;12.358;2023-02-15T18:33:52;8.30;;;5.67;;
15381;SDS011;7789;51.364;12.358;2023-02-15T18:38:57;7.17;;;5.50;;
15381;SDS011;7789;51.364;12.358;2023-02-15T18:44:12;8.53;;;6.10;;
15381;SDS011;7789;51.364;12.358;2023-02-15T18:49:17;8.87;;;6.90;;
15381;SDS011;7789;51.364;12.358;2023-02-15T18:54:22;11.90;;;8.33;;
15381;SDS011;7789;51.364;12.358;2023-02-15T18:59:27;10.73;;;7.17;;
15381;SDS011;7789;51.364;12.358;2023-02-15T19:04:31;7.83;;;7.03;;
15381;SDS011;7789;51.364;12.358;2023-02-15T19:09:36;7.87;;;7.03;;
15381;SDS011;7789;51.364;12.358;2023-02-15T19:14:49;8.03;;;6.13;;
15381;SDS011;7789;51.364;12.358;2023-02-15T19:19:53;8.30;;;7.13;;
15381;SDS011;7789;51.364;12.358;2023-02-15T19:24:58;10.07;;;7.50;;
15381;SDS011;7789;51.364;12.358;2023-02-15T19:30:10;8.27;;;6.97;;
15381;SDS011;7789;51.364;12.358;2023-02-15T19:35:17;8.40;;;6.83;;
15381;SDS011;7789;51.364;12.358;2023-02-15T19:40:25;10.00;;;7.70;;
15381;SDS011;7789;51.364;12.358;2023-02-15T19:45:30;8.37;;;7.13;;
15381;SDS011;7789;51.364;12.358;2023-02-15T19:50:34;9.70;;;7.87;;
15381;SDS011;7789;51.364;12.358;2023-02-15T19:55:38;10.07;;;7.80;;
15381;SDS011;7789;51.364;12.358;2023-02-15T20:00:42;10.57;;;7.70;;
15381;SDS011;7789;51.364;12.358;2023-02-15T20:05:45;10.50;;;8.20;;
15381;SDS011;7789;51.364;12.358;2023-02-15T20:10:51;11.53;;;8.87;;
15381;SDS011;7789;51.364;12.358;2023-02-15T20:15:54;11.63;;;9.30;;
15381;SDS011;7789;51.364;12.358;2023-02-15T20:20:59;10.57;;;8.43;;
15381;SDS011;7789;51.364;12.358;2023-02-15T20:26:13;13.00;;;9.00;;
15381;SDS011;7789;51.364;12.358;2023-02-15T20:31:18;11.00;;;8.03;;
15381;SDS011;7789;51.364;12.358;2023-02-15T20:36:22;10.60;;;8.03;;
15381;SDS011;7789;51.364;12.358;2023-02-15T20:41:31;9.90;;;7.83;;
15381;SDS011;7789;51.364;12.358;2023-02-15T20:46:38;9.33;;;7.73;;
15381;SDS011;7789;51.364;12.358;2023-02-15T20:51:44;14.83;;;8.00;;
15381;SDS011;7789;51.364;12.358;2023-02-15T20:56:53;11.57;;;7.40;;
15381;SDS011;7789;51.364;12.358;2023-02-15T21:01:57;11.53;;;6.90;;
15381;SDS011;7789;51.364;12.358;2023-02-15T21:07:03;10.33;;;6.80;;
15381;SDS011;7789;51.364;12.358;2023-02-15T21:12:09;8.80;;;6.53;;
15381;SDS011;7789;51.364;12.358;2023-02-15T21:17:15;12.53;;;7.07;;
15381;SDS011;7789;51.364;12.358;2023-02-15T21:22:19;8.93;;;6.80;;
15381;SDS011;7789;51.364;12.358;2023-02-15T21:27:25;9.40;;;6.80;;
15381;SDS011;7789;51.364;12.358;2023-02-15T21:32:28;11.70;;;7.43;;
15381;SDS011;7789;51.364;12.358;2023-02-15T21:37:32;12.30;;;6.97;;
15381;SDS011;7789;51.364;12.358;2023-02-15T21:42:40;10.03;;;7.87;;
15381;SDS011;7789;51.364;12.358;2023-02-15T21:48:01;9.43;;;6.97;;
15381;SDS011;7789;51.364;12.358;2023-02-15T21:53:05;8.87;;;7.30;;
15381;SDS011;7789;51.364;12.358;2023-02-15T21:58:15;10.47;;;7.90;;
15381;SDS011;7789;51.364;12.358;2023-02-15T22:03:29;9.63;;;7.43;;
15381;SDS011;7789;51.364;12.358;2023-02-15T22:08:35;9.83;;;7.00;;
15381;SDS011;7789;51.364;12.358;2023-02-15T22:13:39;9.97;;;8.00;;
15381;SDS011;7789;51.364;12.358;2023-02-15T22:18:44;10.77;;;7.40;;
15381;SDS011;7789;51.364;12.358;2023-02-15T22:23:49;9.17;;;7.23;;
15381;SDS011;7789;51.364;12.358;2023-02-15T22:28:55;9.07;;;6.90;;
15381;SDS011;7789;51.364;12.358;2023-02-15T22:34:05;11.20;;;7.60;;
15381;SDS011;7789;51.364;12.358;2023-02-15T22:39:10;11.97;;;7.33;;
15381;SDS011;7789;51.364;12.358;2023-02-15T22:44:20;10.77;;;7.23;;
15381;SDS011;7789;51.364;12.358;2023-02-15T22:49:27;10.63;;;7.60;;
15381;SDS011;7789;51.364;12.358;2023-02-15T22:54:31;9.47;;;6.97;;
15381;SDS011;7789;51.364;12.358;2023-02-15T22:59:36;8.93;;;6.73;;
15381;SDS011;7789;51.364;12.358;2023-02-15T23:04:39;9.00;;;6.77;;
15381;SDS011;7789;51.364;12.358;2023-02-15T23:09:43;9.80;;;7.27;;
15381;SDS011;7789;51.364;12.358;2023-02-15T23:14:48;9.93;;;6.60;;
15381;SDS011;7789;51.364;12.358;2023-02-15T23:19:51;9.67;;;7.13;;
15381;SDS011;7789;51.364;12.358;2023-02-15T23:24:54;10.13;;;7.63;;
15381;SDS011;7789;51.364;12.358;2023-02-15T23:30:00;11.43;;;7.20;;
15381;SDS011;7789;51.364;12.358;2023-02-15T23:35:04;8.37;;;6.83;;
15381;SDS011;7789;51.364;12.358;2023-02-15T23:40:16;8.73;;;7.20;;
15381;SDS011;7789;51.364;12.358;2023-02-15T23:45:40;8.47;;;6.33;;
15381;SDS011;7789;51.364;12.358;2023-02-15T23:50:43;8.10;;;6.60;;
15381;SDS011;7789;51.364;12.358;2023-02-15T23:55:46;10.10;;;6.77;;
